map of MFQ home
MFQ - Airport
Location
City:  Maradi, Niger
ICAO:DRRM
IATA:MFQ

Details
Type:Airport (Aerodrome, Airfield)
Latitude:1330'09"N (13.502531)
Longitude:707'36"E (7.126753)
Datum:WGS 1984
Elevation:1240 ft (378 m)
Variation:0.03E (WMM2015v2 magnetic declination)
0.11 annual change
Runways:1
Longest:6070 × 98 ft (1850 × 30 m), paved

Time
Time Zone:UTC+1
Local Time:

Weather
METAR:DRRM 041400Z 04008KT CAVOK 36/02 Q1011

Related Locations
Nearby:
Farthest:AAU: 12433 mi / 20009 km
Asau, WS

Find:

   beyond  
but within

Other Information
Maps:
NOTAMs:
Links:
Sources:

  
  • flag of Niger
  

Sectional Chart

Flight Planning
at skyvector.com

Satellite Image

Google Maps Satellite view

 

Copyright © 2004-2019 Karl L. Swartz. All rights reserved.
The Great Circle Mapper name and logo are trademarks of the Great Circle Mapper.
All other trademarks mentioned herein belong to their respective owners.
Please see credits for attibutions and further copyright information.

  Follow gcmap on Facebook Follow gcmap on Twitter GCmap on LinkedIn

hCard Microformat

Geo Microformat